Time;durP1;ratioP1;P1;durP2;ratioP2;P2;SDS_P1;SDS_P2;PMS_P1;PMS_P2;Temp;Humidity;BMP_temperature;BMP_pressure;BME280_temperature;BME280_humidity;BME280_pressure;Samples;Min_cycle;Max_cycle;Signal;HPM_P1;HPM_P2
2020/12/31 00:02:09;;;;;;;21.67;12.43;;;;;;;3.15;100.00;100311.44;4832680;29;20037;-78
2020/12/31 00:04:35;;;;;;;17.48;13.02;;;;;;;3.14;100.00;100303.66;4832301;29;20114;-78
2020/12/31 00:07:00;;;;;;;17.63;12.32;;;;;;;3.08;100.00;100296.81;4835808;29;20053;-77
2020/12/31 00:09:25;;;;;;;14.73;10.65;;;;;;;3.06;100.00;100299.47;4815498;29;20057;-77
2020/12/31 00:11:51;;;;;;;14.57;10.25;;;;;;;3.14;100.00;100304.50;4815222;29;20603;-77
2020/12/31 00:14:16;;;;;;;13.63;9.85;;;;;;;3.17;100.00;100306.22;4814125;29;20101;-78
2020/12/31 00:16:42;;;;;;;19.55;10.55;;;;;;;3.04;100.00;100282.97;4818031;29;20033;-79
2020/12/31 00:19:07;;;;;;;16.10;10.50;;;;;;;3.06;100.00;100282.91;4818655;29;20034;-78
2020/12/31 00:21:32;;;;;;;15.85;9.75;;;;;;;3.14;100.00;100285.38;4831254;29;20045;-78
2020/12/31 00:23:58;;;;;;;15.10;10.43;;;;;;;3.25;100.00;100291.19;4814321;29;20033;-78
2020/12/31 00:26:23;;;;;;;18.45;11.70;;;;;;;3.06;100.00;100283.81;4836471;29;20034;-79
2020/12/31 00:28:49;;;;;;;17.23;11.38;;;;;;;3.20;100.00;100296.53;4836992;29;20038;-80
2020/12/31 00:31:14;;;;;;;19.60;11.80;;;;;;;3.17;100.00;100286.16;4836029;29;20095;-79
2020/12/31 00:33:40;;;;;;;16.25;11.27;;;;;;;3.19;100.00;100293.97;4814023;29;20385;-78
2020/12/31 00:36:05;;;;;;;16.40;11.18;;;;;;;3.24;100.00;100279.91;4820235;29;20098;-78
2020/12/31 00:38:31;;;;;;;18.10;11.30;;;;;;;3.26;100.00;100278.13;4814950;29;20030;-78
2020/12/31 00:40:56;;;;;;;16.88;11.25;;;;;;;3.26;100.00;100285.06;4804884;29;20029;-78
2020/12/31 00:43:22;;;;;;;19.52;11.85;;;;;;;3.24;100.00;100287.72;4811400;29;20481;-78
2020/12/31 00:45:48;;;;;;;18.10;11.18;;;;;;;3.14;100.00;100267.94;4820847;29;20036;-79
2020/12/31 00:48:14;;;;;;;14.68;11.13;;;;;;;3.31;100.00;100284.09;4832247;29;20053;-78
2020/12/31 00:50:39;;;;;;;16.90;10.40;;;;;;;3.34;100.00;100288.38;4835162;29;20034;-78
2020/12/31 00:53:05;;;;;;;17.50;9.73;;;;;;;3.20;100.00;100291.31;4818152;29;20061;-79
2020/12/31 00:55:30;;;;;;;16.60;9.15;;;;;;;3.15;100.00;100277.50;4819253;29;20105;-77
2020/12/31 00:57:56;;;;;;;15.50;9.15;;;;;;;3.11;100.00;100286.28;4832878;29;20478;-77
2020/12/31 01:00:21;;;;;;;12.52;8.70;;;;;;;3.24;100.00;100279.03;4819946;29;20026;-77
2020/12/31 01:02:46;;;;;;;15.15;9.43;;;;;;;3.29;100.00;100287.63;4816875;29;20064;-77
2020/12/31 01:05:12;;;;;;;14.77;10.15;;;;;;;3.05;100.00;100268.16;4819615;29;20067;-78
2020/12/31 01:07:38;;;;;;;16.65;10.05;;;;;;;3.20;100.00;100283.47;4818232;29;20060;-78
2020/12/31 01:10:10;;;;;;;13.90;9.00;;;;;;;3.17;100.00;100269.66;4817214;29;20034;-77
2020/12/31 01:12:37;;;;;;;15.20;8.20;;;;;;;3.09;100.00;100265.44;4819390;29;20550;-78
2020/12/31 01:15:05;;;;;;;14.10;8.98;;;;;;;3.07;100.00;100259.41;4835213;29;20029;-78
2020/12/31 01:17:30;;;;;;;11.05;8.45;;;;;;;3.07;100.00;100261.16;4808751;29;20041;-77
2020/12/31 01:19:56;;;;;;;12.48;8.52;;;;;;;3.16;100.00;100273.97;4818878;29;20036;-78
2020/12/31 01:22:21;;;;;;;13.15;8.25;;;;;;;3.08;100.00;100265.47;4794866;29;20621;-75
2020/12/31 01:24:47;;;;;;;11.68;7.18;;;;;;;3.12;100.00;100264.53;4811120;29;20037;-78
2020/12/31 01:27:14;;;;;;;12.52;7.70;;;;;;;3.11;100.00;100275.84;4816736;29;20038;-76
2020/12/31 01:29:40;;;;;;;26.63;9.20;;;;;;;3.07;100.00;100276.81;4813241;29;20033;-76
2020/12/31 01:32:05;;;;;;;12.02;7.55;;;;;;;3.22;100.00;100288.69;4813554;29;20099;-78
2020/12/31 01:34:31;;;;;;;9.90;7.68;;;;;;;3.11;100.00;100268.91;4816883;29;20482;-77
2020/12/31 01:36:56;;;;;;;15.52;7.85;;;;;;;3.15;100.00;100269.66;4815206;29;20118;-77
2020/12/31 01:39:22;;;;;;;11.02;8.38;;;;;;;3.20;100.00;100290.44;4827638;29;20040;-76
2020/12/31 01:41:49;;;;;;;11.75;8.55;;;;;;;3.24;100.00;100290.34;4829013;29;20030;-77
2020/12/31 01:44:14;;;;;;;12.23;8.93;;;;;;;3.18;100.00;100287.88;4833192;29;20030;-76
2020/12/31 01:46:43;;;;;;;14.65;9.07;;;;;;;3.21;100.00;100281.72;4835387;29;20044;-77
2020/12/31 01:49:09;;;;;;;11.70;7.97;;;;;;;3.17;100.00;100286.16;4817897;29;20036;-78
2020/12/31 01:51:35;;;;;;;17.33;10.02;;;;;;;3.12;100.00;100280.19;4834802;29;20568;-78
2020/12/31 01:54:01;;;;;;;17.33;8.27;;;;;;;3.21;100.00;100284.31;4816909;29;20434;-78
2020/12/31 01:56:29;;;;;;;12.57;8.35;;;;;;;3.14;100.00;100278.41;4833858;29;20549;-77
2020/12/31 01:58:55;;;;;;;9.82;6.88;;;;;;;3.09;100.00;100275.88;4833720;29;20074;-78
2020/12/31 02:01:21;;;;;;;9.80;6.93;;;;;;;3.22;100.00;100284.31;4817725;29;20514;-78
2020/12/31 02:03:51;;;;;;;10.68;6.70;;;;;;;3.11;100.00;100281.06;4816345;29;20026;-78
2020/12/31 02:06:17;;;;;;;12.88;8.35;;;;;;;3.16;100.00;100281.81;4832334;29;20778;-77
2020/12/31 02:08:44;;;;;;;13.20;7.78;;;;;;;3.15;100.00;100287.09;4834604;29;20490;-78
2020/12/31 02:11:11;;;;;;;13.70;8.05;;;;;;;3.09;100.00;100280.25;4818784;29;20529;-77
2020/12/31 02:13:36;;;;;;;10.38;6.43;;;;;;;3.13;100.00;100281.06;4836239;29;20498;-78
2020/12/31 02:16:02;;;;;;;11.75;7.10;;;;;;;3.09;100.00;100286.31;4838204;29;20061;-77
2020/12/31 02:18:27;;;;;;;15.32;7.25;;;;;;;3.11;100.00;100286.28;4834131;29;20137;-77
2020/12/31 02:20:54;;;;;;;13.23;7.63;;;;;;;3.05;100.00;100286.44;4817115;29;20141;-77
2020/12/31 02:23:19;;;;;;;14.38;6.68;;;;;;;3.06;100.00;100288.13;4824512;29;20030;-77
2020/12/31 02:25:44;;;;;;;13.00;6.68;;;;;;;2.99;100.00;100289.19;4828023;29;20041;-77
2020/12/31 02:28:10;;;;;;;5.50;4.20;;;;;;;2.88;100.00;100293.78;4817682;29;20084;-76
2020/12/31 02:30:36;;;;;;;5.15;3.78;;;;;;;2.73;100.00;100290.59;4833092;29;20086;-77
2020/12/31 02:33:01;;;;;;;5.78;3.55;;;;;;;2.70;100.00;100288.06;4829549;29;20026;-77
2020/12/31 02:35:26;;;;;;;6.97;3.25;;;;;;;2.66;100.00;100291.63;4828742;29;20034;-76
2020/12/31 02:37:52;;;;;;;5.00;3.30;;;;;;;2.78;100.00;100290.50;4830942;29;20037;-77
2020/12/31 02:40:17;;;;;;;5.22;3.50;;;;;;;2.69;100.00;100298.53;4835897;29;20033;-77
2020/12/31 02:42:42;;;;;;;4.22;2.65;;;;;;;2.65;100.00;100295.13;4818579;29;20077;-77
2020/12/31 02:45:08;;;;;;;4.68;2.72;;;;;;;2.69;100.00;100283.72;4831883;29;20034;-77
2020/12/31 02:47:39;;;;;;;5.80;2.53;;;;;;;2.73;100.00;100290.59;4819265;29;20077;-78
2020/12/31 02:50:04;;;;;;;4.88;2.72;;;;;;;2.65;100.00;100283.81;4832784;29;20030;-78
2020/12/31 02:52:29;;;;;;;5.78;3.45;;;;;;;2.66;100.00;100281.19;4813263;29;20054;-77
2020/12/31 02:54:55;;;;;;;5.65;2.88;;;;;;;2.66;100.00;100275.97;4836498;29;20514;-77
2020/12/31 02:57:20;;;;;;;4.40;3.38;;;;;;;2.77;100.00;100274.00;4830689;29;20061;-80
2020/12/31 02:59:45;;;;;;;4.95;2.95;;;;;;;2.83;100.00;100275.63;4834720;29;20566;-78
2020/12/31 03:02:10;;;;;;;5.07;4.15;;;;;;;2.74;100.00;100267.97;4823909;29;20033;-78
2020/12/31 03:04:36;;;;;;;5.00;3.00;;;;;;;2.72;100.00;100269.78;4835385;29;20044;-78
2020/12/31 03:07:01;;;;;;;6.60;3.83;;;;;;;2.73;100.00;100268.88;4839965;29;20033;-79
2020/12/31 03:09:26;;;;;;;6.28;3.75;;;;;;;2.78;100.00;100264.41;4838251;29;20034;-78
2020/12/31 03:11:51;;;;;;;5.53;4.10;;;;;;;2.84;100.00;100259.91;4833501;29;20106;-78
2020/12/31 03:14:17;;;;;;;5.60;4.40;;;;;;;2.95;100.00;100256.19;4821645;29;20041;-77
2020/12/31 03:16:42;;;;;;;5.55;4.05;;;;;;;2.98;100.00;100263.97;4836632;29;20042;-77
2020/12/31 03:19:07;;;;;;;10.98;5.40;;;;;;;2.90;100.00;100255.44;4838991;29;20063;-79
2020/12/31 03:21:33;;;;;;;11.00;5.57;;;;;;;2.93;100.00;100265.84;4821012;29;20085;-77
2020/12/31 03:23:58;;;;;;;8.60;6.50;;;;;;;2.81;100.00;100266.94;4832194;29;20029;-77
2020/12/31 03:26:24;;;;;;;10.18;7.63;;;;;;;2.90;100.00;100260.66;4822038;29;20104;-79
2020/12/31 03:28:49;;;;;;;10.00;6.88;;;;;;;2.87;100.00;100253.78;4823114;29;20037;-76
2020/12/31 03:31:14;;;;;;;10.48;6.68;;;;;;;2.76;100.00;100247.91;4820114;29;20029;-77
2020/12/31 03:33:39;;;;;;;9.63;7.60;;;;;;;2.75;100.00;100251.41;4836733;29;20050;-77
2020/12/31 03:36:05;;;;;;;8.80;6.63;;;;;;;2.77;100.00;100249.66;4818844;29;20042;-77
2020/12/31 03:38:30;;;;;;;9.63;7.35;;;;;;;2.67;100.00;100241.16;4836924;29;20534;-77
2020/12/31 03:40:55;;;;;;;10.82;7.57;;;;;;;2.65;100.00;100249.91;4832497;29;20073;-77
2020/12/31 03:43:20;;;;;;;11.00;8.00;;;;;;;2.61;100.00;100246.53;4819590;29;20033;-77
2020/12/31 03:45:46;;;;;;;10.40;7.28;;;;;;;2.62;100.00;100243.00;4816969;29;20461;-77
2020/12/31 03:48:11;;;;;;;13.55;8.63;;;;;;;2.52;100.00;100233.66;4833123;29;20038;-77
2020/12/31 03:50:37;;;;;;;15.65;9.57;;;;;;;2.59;100.00;100243.06;4835694;29;20076;-77
2020/12/31 03:53:03;;;;;;;14.50;9.20;;;;;;;2.59;100.00;100238.72;4812447;29;20119;-77
2020/12/31 03:55:28;;;;;;;12.70;9.27;;;;;;;2.57;100.00;100230.06;4831136;29;20518;-77
2020/12/31 03:57:54;;;;;;;17.88;10.85;;;;;;;2.72;100.00;100230.63;4832974;29;20030;-77
2020/12/31 04:00:19;;;;;;;14.30;11.02;;;;;;;2.72;100.00;100228.88;4820452;29;20041;-77
2020/12/31 04:02:45;;;;;;;17.60;10.82;;;;;;;2.58;100.00;100220.47;4837195;29;20022;-76
2020/12/31 04:05:10;;;;;;;18.67;12.10;;;;;;;2.62;100.00;100219.53;4829333;29;20038;-77
2020/12/31 04:07:35;;;;;;;17.83;13.60;;;;;;;2.70;100.00;100207.16;4822004;29;20061;-76
2020/12/31 04:10:02;;;;;;;19.08;12.77;;;;;;;2.67;100.00;100209.00;4821101;29;20033;-78
2020/12/31 04:12:28;;;;;;;18.42;12.75;;;;;;;2.60;100.00;100209.09;4817219;29;20046;-75
2020/12/31 04:14:53;;;;;;;18.13;12.95;;;;;;;2.48;100.00;100203.31;4831824;29;20049;-77
2020/12/31 04:17:18;;;;;;;20.50;12.48;;;;;;;2.37;100.00;100200.09;4836763;29;20064;-77
2020/12/31 04:19:44;;;;;;;21.15;13.27;;;;;;;2.58;100.00;100208.28;4819860;29;20118;-77
2020/12/31 04:22:09;;;;;;;25.02;14.05;;;;;;;2.64;100.00;100204.69;4816425;29;20305;-76
2020/12/31 04:24:35;;;;;;;19.08;12.73;;;;;;;2.63;100.00;100202.13;4835912;29;20120;-76
2020/12/31 04:27:01;;;;;;;24.02;12.50;;;;;;;2.71;100.00;100202.78;4836444;29;20030;-76
2020/12/31 04:29:26;;;;;;;23.65;10.77;;;;;;;2.74;100.00;100194.91;4817022;29;20686;-76
2020/12/31 04:31:51;;;;;;;18.08;11.18;;;;;;;2.72;100.00;100192.34;4817255;29;20086;-77
2020/12/31 04:34:17;;;;;;;26.58;13.43;;;;;;;2.70;100.00;100183.66;4820195;29;20037;-77
2020/12/31 04:36:42;;;;;;;18.00;12.40;;;;;;;2.64;100.00;100176.00;4836506;29;20026;-78
2020/12/31 04:39:07;;;;;;;20.30;11.02;;;;;;;2.64;100.00;100181.22;4835851;29;20036;-78
2020/12/31 04:41:33;;;;;;;27.17;13.55;;;;;;;2.63;100.00;100181.25;4837408;29;20118;-78
2020/12/31 04:44:00;;;;;;;21.70;12.80;;;;;;;2.49;100.00;100160.69;4836321;29;20766;-78
2020/12/31 04:46:28;;;;;;;21.33;13.48;;;;;;;2.50;100.00;100176.28;4836701;29;20040;-78
2020/12/31 04:49:11;;;;;;;21.00;12.30;;;;;;;2.46;100.00;100179.00;4830451;29;20033;-78
2020/12/31 04:51:38;;;;;;;17.77;11.95;;;;;;;2.53;100.00;100175.38;4833326;29;20034;-77
2020/12/31 04:54:05;;;;;;;22.75;13.60;;;;;;;2.45;100.00;100175.53;4829773;29;20708;-78
2020/12/31 04:56:34;;;;;;;20.42;13.13;;;;;;;2.39;100.00;100169.59;4819466;29;20072;-77
2020/12/31 04:58:59;;;;;;;19.73;12.38;;;;;;;2.47;100.00;100172.91;4833213;29;20029;-77
2020/12/31 05:01:24;;;;;;;22.50;13.07;;;;;;;2.56;100.00;100184.00;4818659;29;20044;-77
2020/12/31 05:03:50;;;;;;;17.23;11.55;;;;;;;2.72;100.00;100187.13;4817327;29;20121;-77
2020/12/31 05:06:18;;;;;;;19.80;12.02;;;;;;;2.72;100.00;100176.69;4834739;29;20041;-77
2020/12/31 05:08:44;;;;;;;15.75;10.38;;;;;;;2.65;100.00;100179.47;4833264;29;20117;-77
2020/12/31 05:11:10;;;;;;;18.88;11.68;;;;;;;2.78;100.00;100193.94;4833949;29;20034;-77
2020/12/31 05:13:47;;;;;;;19.85;12.48;;;;;;;2.71;100.00;100184.53;4831820;29;20225;-80
2020/12/31 05:16:13;;;;;;;19.05;12.30;;;;;;;2.70;100.00;100180.22;4834491;29;20040;-78
2020/12/31 05:18:39;;;;;;;20.48;11.93;;;;;;;2.67;100.00;100183.75;4836153;29;20030;-78
2020/12/31 05:21:15;;;;;;;22.23;12.75;;;;;;;2.63;100.00;100176.03;4831939;29;20130;-78
2020/12/31 05:23:43;;;;;;;20.05;12.77;;;;;;;2.72;100.00;100176.69;4831034;29;20030;-78
2020/12/31 05:26:08;;;;;;;19.50;11.93;;;;;;;2.78;100.00;100181.75;4818928;29;20030;-77
2020/12/31 05:28:37;;;;;;;20.77;11.55;;;;;;;2.83;100.00;100171.22;4832694;29;20102;-78
2020/12/31 05:31:12;;;;;;;20.17;11.88;;;;;;;2.84;100.00;100186.81;4814700;29;20379;-78
2020/12/31 05:33:39;;;;;;;13.73;8.77;;;;;;;2.84;100.00;100176.38;4817896;29;20101;-77
2020/12/31 05:36:11;;;;;;;23.85;13.07;;;;;;;2.89;100.00;100173.69;4816624;29;20071;-78
2020/12/31 05:38:37;;;;;;;22.63;12.63;;;;;;;2.80;100.00;100171.28;4829193;29;20454;-78
2020/12/31 05:41:02;;;;;;;24.27;13.00;;;;;;;2.76;100.00;100173.13;4821293;29;20102;-79
2020/12/31 05:43:28;;;;;;;21.92;14.05;;;;;;;2.77;100.00;100171.38;4817879;29;20565;-78
2020/12/31 05:46:10;;;;;;;20.13;13.60;;;;;;;2.69;100.00;100170.66;4836276;29;20059;-79
2020/12/31 05:48:36;;;;;;;24.40;13.15;;;;;;;2.73;100.00;100177.53;4834385;29;20414;-78
2020/12/31 05:51:24;;;;;;;23.35;12.88;;;;;;;2.68;100.00;100185.47;4818839;29;20041;-78
2020/12/31 05:53:51;;;;;;;19.23;12.57;;;;;;;2.64;100.00;100181.22;4832954;29;20038;-79
2020/12/31 05:56:17;;;;;;;21.45;13.27;;;;;;;2.52;100.00;100174.53;4836585;29;20033;-79
2020/12/31 05:58:45;;;;;;;20.13;13.18;;;;;;;2.52;100.00;100186.72;4835196;29;20144;-79
2020/12/31 06:01:12;;;;;;;19.35;14.07;;;;;;;2.65;100.00;100182.91;4813772;29;20034;-79
2020/12/31 06:03:46;;;;;;;21.63;13.93;;;;;;;2.63;100.00;100186.47;4833376;29;20042;-78
2020/12/31 06:06:16;;;;;;;26.63;15.00;;;;;;;2.55;100.00;100184.88;4830169;29;20663;-79
2020/12/31 06:08:53;;;;;;;28.58;14.50;;;;;;;2.62;100.00;100192.59;4837203;29;20642;-78
2020/12/31 06:11:29;;;;;;;22.23;13.93;;;;;;;2.53;100.00;100184.06;4822412;29;20037;-78
2020/12/31 06:13:56;;;;;;;22.60;13.80;;;;;;;2.58;100.00;100194.41;4831687;29;20051;-79
2020/12/31 06:16:25;;;;;;;19.67;13.13;;;;;;;2.58;100.00;100184.81;4837344;29;20029;-78
2020/12/31 06:19:11;;;;;;;20.27;13.55;;;;;;;2.63;100.00;100197.75;4834911;29;20038;-79
2020/12/31 06:21:41;;;;;;;21.38;13.52;;;;;;;2.61;100.00;100191.72;4817434;29;20030;-78
2020/12/31 06:24:12;;;;;;;22.00;14.18;;;;;;;2.60;100.00;100192.59;4811986;29;20033;-78
2020/12/31 06:26:40;;;;;;;24.40;14.70;;;;;;;2.47;100.00;100196.38;4812965;29;20483;-77
2020/12/31 06:29:07;;;;;;;25.40;15.40;;;;;;;2.46;100.00;100199.84;4830426;29;20056;-78
2020/12/31 06:31:32;;;;;;;20.13;14.05;;;;;;;2.48;100.00;100191.13;4812820;29;20350;-79
2020/12/31 06:33:58;;;;;;;25.85;15.32;;;;;;;2.55;100.00;100197.91;4835886;29;20038;-77
2020/12/31 06:36:23;;;;;;;23.92;15.65;;;;;;;2.34;100.00;100196.63;4817995;29;20496;-79
2020/12/31 06:38:51;;;;;;;30.50;15.85;;;;;;;2.32;100.00;100200.19;4829259;29;20034;-79
2020/12/31 06:41:31;;;;;;;26.05;16.15;;;;;;;2.26;100.00;100213.31;4832620;29;20034;-78
2020/12/31 06:44:13;;;;;;;28.15;17.38;;;;;;;2.26;100.00;100203.78;4833205;29;20550;-77
2020/12/31 06:46:49;;;;;;;29.38;17.38;;;;;;;2.42;100.00;100211.28;4832127;29;20050;-78
2020/12/31 06:49:15;;;;;;;25.05;15.98;;;;;;;2.38;100.00;100207.00;4832245;29;20489;-79
2020/12/31 06:51:41;;;;;;;27.15;16.00;;;;;;;2.53;100.00;100217.13;4814226;29;20692;-78
2020/12/31 06:54:06;;;;;;;24.83;16.13;;;;;;;2.46;100.00;100195.53;4812679;29;20059;-79
2020/12/31 06:56:43;;;;;;;25.63;16.45;;;;;;;2.53;100.00;100201.47;4828642;29;20098;-78
2020/12/31 06:59:28;;;;;;;29.35;17.02;;;;;;;2.59;100.00;100201.31;4825775;29;20061;-78
2020/12/31 07:01:59;;;;;;;25.23;16.17;;;;;;;2.59;100.00;100202.19;4832134;29;20033;-77
2020/12/31 07:04:26;;;;;;;23.42;16.58;;;;;;;2.51;100.00;100208.44;4831630;29;20028;-78
2020/12/31 07:06:51;;;;;;;29.73;17.63;;;;;;;2.49;100.00;100215.47;4814720;29;20044;-77
2020/12/31 07:09:37;;;;;;;28.90;17.92;;;;;;;2.41;100.00;100210.41;4831972;29;20030;-77
2020/12/31 07:12:05;;;;;;;29.55;17.35;;;;;;;2.34;100.00;100220.09;4825441;29;20096;-77
2020/12/31 07:14:32;;;;;;;29.88;17.70;;;;;;;2.31;100.00;100217.56;4829608;29;20566;-76
2020/12/31 07:17:03;;;;;;;25.70;15.93;;;;;;;2.26;100.00;100221.13;4829355;29;20037;-77
2020/12/31 07:19:35;;;;;;;28.88;18.00;;;;;;;2.25;100.00;100222.03;4831949;29;20046;-78
2020/12/31 07:22:07;;;;;;;32.30;17.40;;;;;;;2.40;100.00;100226.09;4812157;29;20097;-78
2020/12/31 07:24:32;;;;;;;31.15;18.50;;;;;;;2.24;100.00;100222.94;4831549;29;20038;-78
2020/12/31 07:26:59;;;;;;;27.40;17.30;;;;;;;2.30;100.00;100231.47;4829693;29;20358;-77
2020/12/31 07:29:34;;;;;;;32.05;18.73;;;;;;;2.28;100.00;100235.03;4829486;29;20095;-78
2020/12/31 07:32:02;;;;;;;30.23;18.38;;;;;;;2.32;100.00;100228.88;4828357;29;20117;-78
2020/12/31 07:34:28;;;;;;;26.40;17.13;;;;;;;2.30;100.00;100233.22;4815730;29;20050;-77
2020/12/31 07:37:06;;;;;;;30.35;19.13;;;;;;;2.27;100.00;100215.06;4832581;29;20037;-77
2020/12/31 07:39:34;;;;;;;33.10;20.45;;;;;;;2.38;100.00;100220.91;4815077;29;20038;-78
2020/12/31 07:42:18;;;;;;;29.58;18.40;;;;;;;2.25;100.00;100225.50;4810615;29;20125;-77
2020/12/31 07:44:57;;;;;;;29.70;18.08;;;;;;;2.20;100.00;100229.09;4814106;29;20041;-77
2020/12/31 07:47:23;;;;;;;31.58;20.13;;;;;;;2.22;100.00;100230.78;4810211;29;20033;-77
2020/12/31 07:49:51;;;;;;;34.80;19.50;;;;;;;2.30;100.00;100231.47;4834210;29;21351;-77
2020/12/31 07:52:17;;;;;;;32.28;20.67;;;;;;;2.19;100.00;100223.03;4832188;29;20288;-77
2020/12/31 07:54:42;;;;;;;32.45;19.88;;;;;;;2.23;100.00;100239.47;4835715;29;20511;-76
2020/12/31 07:59:46;;;;;;;38.90;20.70;;;;;;;2.48;100.00;100232.00;4984478;24;20584;-91
2020/12/31 08:02:24;;;;;;;28.70;18.95;;;;;;;2.46;100.00;100236.38;5045590;24;20034;-94
2020/12/31 08:05:31;;;;;;;39.15;20.20;;;;;;;2.56;100.00;100251.84;4847997;29;20029;-93
2020/12/31 16:30:02;;;;;;;56.87;30.23;;;;;;;1.80;100.00;100412.25;5832286;24;20373;-93
